Mckinley Sea — WDE5024 — position and weather

sailwx.info

Track history (hours):
 
Tides and Currents Weather Stations Pressure Air Temp Water Temp Dewpoint Dewpoint Depression Visibility Wind Speed Wind Dir Waves Ship Positions

Mckinley Sea

More information available from US FCC via Universal Licensing System and Coast Guard Vessel Documentation Center.

Last reported at 2014-Jul-31 08:33 UTC. Time now 2014-Jul-31 09:35 UTC.
Position N 40°39' W 074°07'.

Length 46 m; draft 7 m.

Type: Towing. MMSI: 367360980.

Date/timePositionNaut miles runAvg speedWind from/ knotsBaromVisibWave heightAir tempDewpointWater temp
2014-Jul-31 08:33N 40°39' W 074°07'0 0.0
2014-Jul-31 07:33N 40°39' W 074°07'0 0.0
2014-Jul-31 06:33N 40°39' W 074°07'0 0.0
2014-Jul-31 05:33N 40°39' W 074°07'0 0.0
2014-Jul-31 04:34N 40°39' W 074°07'0 0.0
2014-Jul-31 03:34N 40°39' W 074°07'0 0.0
2014-Jul-31 02:33N 40°39' W 074°07'0 0.0
2014-Jul-31 01:33N 40°39' W 074°07'0 0.0
2014-Jul-31 00:33N 40°39' W 074°07'0 0.0
2014-Jul-30 23:34N 40°39' W 074°07'0 0.0
2014-Jul-30 22:34N 40°39' W 074°07'0 0.0
2014-Jul-30 21:33N 40°39' W 074°07'2 1.8
2014-Jul-30 20:34N 40°38' W 074°09'1 0.4
2014-Jul-30 18:32N 40°39' W 074°10'0 0.0
2014-Jul-30 17:33N 40°39' W 074°10'0 0.0
2014-Jul-30 16:34N 40°39' W 074°10'0 0.0
2014-Jul-30 15:32N 40°39' W 074°10'0 0.0
2014-Jul-30 14:29N 40°39' W 074°10'0 0.0
2014-Jul-30 03:33N 40°38' W 074°09'3 3.2
2014-Jul-30 02:33N 40°36' W 074°12'2 2.0
2014-Jul-30 01:28N 40°38' W 074°12'2 1.7
2014-Jul-30 00:33N 40°39' W 074°10'0 0.0
2014-Jul-29 23:32N 40°39' W 074°10'0 0.0
2014-Jul-29 22:30N 40°39' W 074°10'3 3.4
2014-Jul-29 21:34N 40°36' W 074°12'0 0.1
2014-Jul-29 15:33N 40°36' W 074°12'0 0.4
2014-Jul-29 14:33N 40°36' W 074°12'0 0.0
2014-Jul-29 13:33N 40°36' W 074°12'0 0.0
2014-Jul-29 12:32N 40°36' W 074°12'0 0.0
2014-Jul-29 11:32N 40°36' W 074°12'0 0.2
2014-Jul-29 09:31N 40°36' W 074°12'0 0.1
2014-Jul-29 07:25N 40°36' W 074°12'0 0.0
2014-Jul-29 06:14N 40°36' W 074°12'0 0.0
2014-Jul-29 05:27N 40°36' W 074°12'0 0.0
2014-Jul-29 04:11N 40°36' W 074°12'0 0.0
2014-Jul-29 01:12N 40°36' W 074°12'0 0.0
2014-Jul-29 00:28N 40°36' W 074°12'0 0.0
2014-Jul-28 22:05N 40°36' W 074°12'0 0.6
2014-Jul-28 21:32N 40°36' W 074°12'0 0.1
2014-Jul-28 17:14N 40°36' W 074°12'0 0.2
2014-Jul-28 15:30N 40°36' W 074°12'1 0.9
2014-Jul-28 14:29N 40°35' W 074°12'5 2.2
2014-Jul-28 12:21N 40°31' W 074°15'4 2.4
2014-Jul-28 10:33N 40°30' W 074°10'3 3.3
2014-Jul-28 09:29N 40°29' W 074°05'11 5.8
2014-Jul-28 07:33N 40°22' W 073°54'8 7.5
2014-Jul-28 06:28N 40°14' W 073°55'8 7.7
2014-Jul-28 05:29N 40°06' W 073°56'7 7.6
2014-Jul-28 04:31N 39°59' W 073°57'8 7.6
2014-Jul-28 03:32N 39°51' W 073°57'7 7.4
2014-Jul-28 02:33N 39°44' W 073°59'8 7.7
2014-Jul-28 01:32N 39°37' W 074°03'8 7.7
2014-Jul-28 00:33N 39°30' W 074°08'  
2014-Jul-24 09:15N 39°31' W 074°08'6 9.3
2014-Jul-24 08:33N 39°37' W 074°04'9 9.2
2014-Jul-24 07:33N 39°45' W 073°59'54 9.0
2014-Jul-24 01:34N 40°39' W 074°04'4 0.4
2014-Jul-23 14:30N 40°39' W 074°10'0 0.0
2014-Jul-23 13:15N 40°39' W 074°10'0 0.0
2014-Jul-23 12:13N 40°39' W 074°10'0 0.0
2014-Jul-23 10:30N 40°39' W 074°10'0 0.0
2014-Jul-23 09:19N 40°39' W 074°10'0 0.0
2014-Jul-23 08:33N 40°39' W 074°10'0 0.0
2014-Jul-23 07:25N 40°39' W 074°10'0 0.0
2014-Jul-23 06:31N 40°39' W 074°10'0 0.0
2014-Jul-23 05:33N 40°39' W 074°10'0 0.0
2014-Jul-23 04:31N 40°39' W 074°10'0 0.0
2014-Jul-23 03:32N 40°39' W 074°10'0 0.0
2014-Jul-23 02:33N 40°39' W 074°10'0 0.0
2014-Jul-23 01:30N 40°39' W 074°10'0 0.0
2014-Jul-23 00:07N 40°39' W 074°10'0 0.0
2014-Jul-22 23:31N 40°39' W 074°10'0 0.0
2014-Jul-22 22:29N 40°39' W 074°10'0 0.0
2014-Jul-22 21:31N 40°39' W 074°10'0 0.0
2014-Jul-22 19:33N 40°39' W 074°10'0 0.0
2014-Jul-22 00:33N 40°39' W 074°10'0 0.0
2014-Jul-21 23:33N 40°39' W 074°10'0 0.0
2014-Jul-21 22:34N 40°39' W 074°10'0 0.1
2014-Jul-21 18:33N 40°38' W 074°09'6 6.0
2014-Jul-21 17:33N 40°40' W 074°02'0 0.1
2014-Jul-21 16:33N 40°40' W 074°02'0 0.0
2014-Jul-21 15:34N 40°40' W 074°02'0 0.0
2014-Jul-21 14:34N 40°40' W 074°02'0 0.0
2014-Jul-21 13:33N 40°40' W 074°02'0 0.0
2014-Jul-21 12:33N 40°40' W 074°02'0 0.0
2014-Jul-21 11:33N 40°40' W 074°02'0 0.1
2014-Jul-21 10:33N 40°40' W 074°02'0 0.1
2014-Jul-21 09:33N 40°40' W 074°02'0 0.0
2014-Jul-21 08:33N 40°40' W 074°02'  
Track history (hours):
 
Tides and Currents Weather Stations Pressure Air Temp Water Temp Dewpoint Dewpoint Depression Visibility Wind Speed Wind Dir Waves Ship Positions

Mckinley Sea

More information available from US FCC via Universal Licensing System and Coast Guard Vessel Documentation Center.

Last reported at 2014-Jul-31 08:33 UTC. Time now 2014-Jul-31 09:35 UTC.
Position N 40°39' W 074°07'.

Length 46 m; draft 7 m.

Type: Towing. MMSI: 367360980.

Date/timePositionNaut miles runAvg speedWind from/ knotsBaromVisibWave heightAir tempDewpointWater temp
2014-Jul-31 08:33N 40°39' W 074°07'0 0.0
2014-Jul-31 07:33N 40°39' W 074°07'0 0.0
2014-Jul-31 06:33N 40°39' W 074°07'0 0.0
2014-Jul-31 05:33N 40°39' W 074°07'0 0.0
2014-Jul-31 04:34N 40°39' W 074°07'0 0.0
2014-Jul-31 03:34N 40°39' W 074°07'0 0.0
2014-Jul-31 02:33N 40°39' W 074°07'0 0.0
2014-Jul-31 01:33N 40°39' W 074°07'0 0.0
2014-Jul-31 00:33N 40°39' W 074°07'0 0.0
2014-Jul-30 23:34N 40°39' W 074°07'0 0.0
2014-Jul-30 22:34N 40°39' W 074°07'0 0.0
2014-Jul-30 21:33N 40°39' W 074°07'2 1.8
2014-Jul-30 20:34N 40°38' W 074°09'1 0.4
2014-Jul-30 18:32N 40°39' W 074°10'0 0.0
2014-Jul-30 17:33N 40°39' W 074°10'0 0.0
2014-Jul-30 16:34N 40°39' W 074°10'0 0.0
2014-Jul-30 15:32N 40°39' W 074°10'0 0.0
2014-Jul-30 14:29N 40°39' W 074°10'0 0.0
2014-Jul-30 03:33N 40°38' W 074°09'3 3.2
2014-Jul-30 02:33N 40°36' W 074°12'2 2.0
2014-Jul-30 01:28N 40°38' W 074°12'2 1.7
2014-Jul-30 00:33N 40°39' W 074°10'0 0.0
2014-Jul-29 23:32N 40°39' W 074°10'0 0.0
2014-Jul-29 22:30N 40°39' W 074°10'3 3.4
2014-Jul-29 21:34N 40°36' W 074°12'0 0.1
2014-Jul-29 15:33N 40°36' W 074°12'0 0.4
2014-Jul-29 14:33N 40°36' W 074°12'0 0.0
2014-Jul-29 13:33N 40°36' W 074°12'0 0.0
2014-Jul-29 12:32N 40°36' W 074°12'0 0.0
2014-Jul-29 11:32N 40°36' W 074°12'0 0.2
2014-Jul-29 09:31N 40°36' W 074°12'0 0.1
2014-Jul-29 07:25N 40°36' W 074°12'0 0.0
2014-Jul-29 06:14N 40°36' W 074°12'0 0.0
2014-Jul-29 05:27N 40°36' W 074°12'0 0.0
2014-Jul-29 04:11N 40°36' W 074°12'0 0.0
2014-Jul-29 01:12N 40°36' W 074°12'0 0.0
2014-Jul-29 00:28N 40°36' W 074°12'0 0.0
2014-Jul-28 22:05N 40°36' W 074°12'0 0.6
2014-Jul-28 21:32N 40°36' W 074°12'0 0.1
2014-Jul-28 17:14N 40°36' W 074°12'0 0.2
2014-Jul-28 15:30N 40°36' W 074°12'1 0.9
2014-Jul-28 14:29N 40°35' W 074°12'5 2.2
2014-Jul-28 12:21N 40°31' W 074°15'4 2.4
2014-Jul-28 10:33N 40°30' W 074°10'3 3.3
2014-Jul-28 09:29N 40°29' W 074°05'11 5.8
2014-Jul-28 07:33N 40°22' W 073°54'8 7.5
2014-Jul-28 06:28N 40°14' W 073°55'8 7.7
2014-Jul-28 05:29N 40°06' W 073°56'7 7.6
2014-Jul-28 04:31N 39°59' W 073°57'8 7.6
2014-Jul-28 03:32N 39°51' W 073°57'7 7.4
2014-Jul-28 02:33N 39°44' W 073°59'8 7.7
2014-Jul-28 01:32N 39°37' W 074°03'8 7.7
2014-Jul-28 00:33N 39°30' W 074°08'  
2014-Jul-24 09:15N 39°31' W 074°08'6 9.3
2014-Jul-24 08:33N 39°37' W 074°04'9 9.2
2014-Jul-24 07:33N 39°45' W 073°59'54 9.0
2014-Jul-24 01:34N 40°39' W 074°04'4 0.4
2014-Jul-23 14:30N 40°39' W 074°10'0 0.0
2014-Jul-23 13:15N 40°39' W 074°10'0 0.0
2014-Jul-23 12:13N 40°39' W 074°10'0 0.0
2014-Jul-23 10:30N 40°39' W 074°10'0 0.0
2014-Jul-23 09:19N 40°39' W 074°10'0 0.0
2014-Jul-23 08:33N 40°39' W 074°10'0 0.0
2014-Jul-23 07:25N 40°39' W 074°10'0 0.0
2014-Jul-23 06:31N 40°39' W 074°10'0 0.0
2014-Jul-23 05:33N 40°39' W 074°10'0 0.0
2014-Jul-23 04:31N 40°39' W 074°10'0 0.0
2014-Jul-23 03:32N 40°39' W 074°10'0 0.0
2014-Jul-23 02:33N 40°39' W 074°10'0 0.0
2014-Jul-23 01:30N 40°39' W 074°10'0 0.0
2014-Jul-23 00:07N 40°39' W 074°10'0 0.0
2014-Jul-22 23:31N 40°39' W 074°10'0 0.0
2014-Jul-22 22:29N 40°39' W 074°10'0 0.0
2014-Jul-22 21:31N 40°39' W 074°10'0 0.0
2014-Jul-22 19:33N 40°39' W 074°10'0 0.0
2014-Jul-22 00:33N 40°39' W 074°10'0 0.0
2014-Jul-21 23:33N 40°39' W 074°10'0 0.0
2014-Jul-21 22:34N 40°39' W 074°10'0 0.1
2014-Jul-21 18:33N 40°38' W 074°09'6 6.0
2014-Jul-21 17:33N 40°40' W 074°02'0 0.1
2014-Jul-21 16:33N 40°40' W 074°02'0 0.0
2014-Jul-21 15:34N 40°40' W 074°02'0 0.0
2014-Jul-21 14:34N 40°40' W 074°02'0 0.0
2014-Jul-21 13:33N 40°40' W 074°02'0 0.0
2014-Jul-21 12:33N 40°40' W 074°02'0 0.0
2014-Jul-21 11:33N 40°40' W 074°02'0 0.1
2014-Jul-21 10:33N 40°40' W 074°02'0 0.1
2014-Jul-21 09:33N 40°40' W 074°02'0 0.0
2014-Jul-21 08:33N 40°40' W 074°02'  

Dump ship's entire track history